createdAt,value
2017-08-06T00:00:04.448Z,93.20
2017-08-06T00:02:31.998Z,93.20
2017-08-06T00:04:59.523Z,93.30
2017-08-06T00:07:27.036Z,92.90
2017-08-06T00:09:54.599Z,92.50
2017-08-06T00:12:22.186Z,91.20
2017-08-06T00:14:49.706Z,90.80
2017-08-06T00:17:18.010Z,89.60
2017-08-06T00:19:45.533Z,89.70
2017-08-06T00:22:13.830Z,87.50
2017-08-06T00:24:41.365Z,87.40
2017-08-06T00:27:08.895Z,87.00
2017-08-06T00:29:36.432Z,87.10
2017-08-06T00:32:03.981Z,87.80
2017-08-06T00:34:31.505Z,87.90
2017-08-06T00:36:59.017Z,88.90
2017-08-06T00:39:26.562Z,88.80
2017-08-06T00:41:54.077Z,89.60
2017-08-06T00:44:21.602Z,89.40
2017-08-06T00:46:49.145Z,89.80
2017-08-06T00:49:16.665Z,88.70
2017-08-06T00:51:44.182Z,89.40
2017-08-06T00:54:11.766Z,89.90
2017-08-06T00:56:39.280Z,90.10
2017-08-06T00:59:06.806Z,90.20
2017-08-06T01:01:35.114Z,90.30
2017-08-06T01:04:02.642Z,90.30
2017-08-06T01:06:30.960Z,90.50
2017-08-06T01:08:58.585Z,90.50
2017-08-06T01:11:26.867Z,90.50
2017-08-06T01:13:54.388Z,90.50
2017-08-06T01:16:21.929Z,90.90
2017-08-06T01:18:49.450Z,90.60
2017-08-06T01:21:16.969Z,90.90
2017-08-06T01:23:44.514Z,91.30
2017-08-06T01:26:12.049Z,91.20
2017-08-06T01:28:39.566Z,91.50
2017-08-06T01:31:07.108Z,91.50
2017-08-06T01:33:34.639Z,91.90
2017-08-06T01:36:02.171Z,92.10
2017-08-06T01:38:29.717Z,92.70
2017-08-06T01:40:57.249Z,92.80
2017-08-06T01:43:24.832Z,92.80
2017-08-06T01:45:53.135Z,93.80
2017-08-06T01:48:20.653Z,93.70
2017-08-06T01:50:48.952Z,94.30
2017-08-06T01:55:50.422Z,94.50
2017-08-06T01:58:18.002Z,94.90
2017-08-06T02:00:45.531Z,95.20
2017-08-06T02:03:13.059Z,95.30
2017-08-06T02:05:40.612Z,95.10
2017-08-06T02:08:08.243Z,95.40
2017-08-06T02:10:35.768Z,96.00
2017-08-06T02:13:03.309Z,95.40
2017-08-06T02:15:30.839Z,95.30
2017-08-06T02:17:58.394Z,95.70
2017-08-06T02:20:25.937Z,95.50
2017-08-06T02:22:53.465Z,96.00
2017-08-06T02:25:21.751Z,96.30
2017-08-06T02:27:49.539Z,96.30
2017-08-06T02:30:17.065Z,96.40
2017-08-06T02:32:45.345Z,95.60
2017-08-06T02:35:12.890Z,95.60
2017-08-06T02:37:40.413Z,95.30
2017-08-06T02:40:07.929Z,95.20
2017-08-06T02:42:35.462Z,95.50
2017-08-06T02:45:03.748Z,96.50
2017-08-06T02:47:32.042Z,96.70
2017-08-06T02:49:59.582Z,96.70
2017-08-06T02:52:27.872Z,97.40
2017-08-06T02:54:55.394Z,97.40
2017-08-06T02:57:22.954Z,96.70
2017-08-06T02:59:50.468Z,96.50
2017-08-06T03:02:18.015Z,96.40
2017-08-06T03:04:45.616Z,96.50
2017-08-06T03:07:13.130Z,96.80
2017-08-06T03:09:40.654Z,97.00
2017-08-06T03:12:08.194Z,97.00
2017-08-06T03:14:35.726Z,97.30
2017-08-06T03:17:03.245Z,98.00
2017-08-06T03:19:31.556Z,99.00
2017-08-06T03:21:59.077Z,98.90
2017-08-06T03:24:26.610Z,99.30
2017-08-06T03:26:54.153Z,99.80
2017-08-06T03:29:21.809Z,99.90
2017-08-06T03:31:49.334Z,99.90
2017-08-06T03:34:16.873Z,99.90
2017-08-06T03:36:44.389Z,99.90
2017-08-06T03:39:11.913Z,99.90
2017-08-06T03:41:39.461Z,99.90
2017-08-06T03:44:07.752Z,99.90
2017-08-06T03:46:35.277Z,99.90
2017-08-06T03:49:02.829Z,99.90
2017-08-06T03:51:30.356Z,99.90
2017-08-06T03:53:57.872Z,99.90
2017-08-06T03:56:26.289Z,99.90
2017-08-06T03:58:53.810Z,99.90
2017-08-06T04:01:21.329Z,99.90
2017-08-06T04:03:48.870Z,99.90
2017-08-06T04:06:16.384Z,99.90
2017-08-06T04:08:43.902Z,99.90
2017-08-06T04:11:11.452Z,99.90
2017-08-06T04:13:38.978Z,99.90
2017-08-06T04:16:06.514Z,99.90
2017-08-06T04:18:34.053Z,99.90
2017-08-06T04:21:01.572Z,99.90
2017-08-06T04:23:29.090Z,99.90
2017-08-06T04:25:57.397Z,99.90
2017-08-06T04:28:24.927Z,99.90
2017-08-06T04:30:53.224Z,99.90
2017-08-06T04:33:20.769Z,99.90
2017-08-06T04:35:49.059Z,99.90
2017-08-06T04:38:16.577Z,99.90
2017-08-06T04:40:44.134Z,99.90
2017-08-06T04:43:11.653Z,99.90
2017-08-06T04:45:39.173Z,99.90
2017-08-06T04:48:07.497Z,99.90
2017-08-06T04:50:35.015Z,99.90
2017-08-06T04:53:02.545Z,99.90
2017-08-06T04:55:30.087Z,99.90
2017-08-06T04:57:57.608Z,99.90
2017-08-06T05:00:25.138Z,99.90
2017-08-06T05:02:52.712Z,99.90
2017-08-06T05:05:20.998Z,99.90
2017-08-06T05:07:49.342Z,99.90
2017-08-06T05:10:16.886Z,99.90
2017-08-06T05:12:44.410Z,99.90
2017-08-06T05:15:11.940Z,99.90
2017-08-06T05:17:40.245Z,99.90
2017-08-06T05:20:07.774Z,99.90
2017-08-06T05:22:35.342Z,99.90
2017-08-06T05:25:03.644Z,99.90
2017-08-06T05:27:31.170Z,99.90
2017-08-06T05:29:59.465Z,99.90
2017-08-06T05:32:27.786Z,99.90
2017-08-06T05:34:55.329Z,99.90
2017-08-06T05:37:22.856Z,99.90
2017-08-06T05:39:51.159Z,99.90
2017-08-06T05:42:18.674Z,99.90
2017-08-06T05:44:46.197Z,99.90
2017-08-06T05:47:13.735Z,99.90
2017-08-06T05:49:41.245Z,99.90
2017-08-06T05:52:08.863Z,99.90
2017-08-06T05:54:36.396Z,99.90
2017-08-06T05:57:03.919Z,99.90
2017-08-06T05:59:31.439Z,99.90
2017-08-06T06:01:58.987Z,99.90
2017-08-06T06:04:26.523Z,99.90
2017-08-06T06:06:54.812Z,99.90
2017-08-06T06:09:22.365Z,99.90
2017-08-06T06:11:50.642Z,99.90
2017-08-06T06:14:18.926Z,99.90
2017-08-06T06:16:46.474Z,99.90
2017-08-06T06:19:14.786Z,99.90
2017-08-06T06:21:42.310Z,99.90
2017-08-06T06:24:10.618Z,99.90
2017-08-06T06:26:38.141Z,99.90
2017-08-06T06:29:06.434Z,99.90
2017-08-06T06:31:33.974Z,99.90
2017-08-06T06:34:02.270Z,99.90
2017-08-06T06:36:29.793Z,99.90
2017-08-06T06:38:57.342Z,99.20
2017-08-06T06:41:24.864Z,97.90
2017-08-06T06:43:52.389Z,97.10
2017-08-06T06:59:11.362Z,96.20
2017-08-06T07:01:38.881Z,86.90
2017-08-06T07:04:06.411Z,84.70
2017-08-06T07:06:33.952Z,83.90
2017-08-06T07:09:01.469Z,83.60
2017-08-06T07:11:28.990Z,85.20
2017-08-06T07:13:56.632Z,85.00
2017-08-06T07:16:24.155Z,87.00
2017-08-06T07:18:52.450Z,85.70
2017-08-06T07:21:19.989Z,85.70
2017-08-06T07:23:48.285Z,87.00
2017-08-06T07:26:15.814Z,87.00
2017-08-06T07:28:44.135Z,87.30
2017-08-06T07:31:11.720Z,87.20
2017-08-06T07:33:39.238Z,85.00
2017-08-06T07:36:06.793Z,86.70
2017-08-06T07:38:34.368Z,86.50
2017-08-06T07:41:01.914Z,84.90
2017-08-06T07:43:29.478Z,84.90
2017-08-06T07:45:57.001Z,84.00
2017-08-06T07:48:24.668Z,82.20
2017-08-06T07:50:52.993Z,83.60
2017-08-06T07:53:20.513Z,83.50
2017-08-06T07:55:48.873Z,83.30
2017-08-06T07:58:16.462Z,82.60
2017-08-06T08:00:43.990Z,82.80
2017-08-06T08:03:11.506Z,83.10
2017-08-06T08:05:39.048Z,81.00
2017-08-06T08:08:06.579Z,78.60
2017-08-06T08:10:35.007Z,77.60
2017-08-06T08:13:02.559Z,77.60
2017-08-06T08:15:30.086Z,76.60
2017-08-06T08:17:58.503Z,73.60
2017-08-06T08:20:26.854Z,73.40
2017-08-06T08:22:54.388Z,73.60
2017-08-06T08:25:21.913Z,73.80
2017-08-06T08:27:49.462Z,72.60
2017-08-06T08:30:16.986Z,74.20
2017-08-06T08:32:45.274Z,71.60
2017-08-06T08:35:12.825Z,71.60
2017-08-06T08:37:40.357Z,70.50
2017-08-06T08:40:07.893Z,70.80
2017-08-06T08:42:35.473Z,69.30
2017-08-06T08:45:03.001Z,71.30
2017-08-06T08:47:30.523Z,67.90
2017-08-06T08:49:58.065Z,67.30
2017-08-06T08:52:26.345Z,64.60
2017-08-06T08:54:54.633Z,64.70
2017-08-06T08:57:22.169Z,64.70
2017-08-06T08:59:49.694Z,64.50
2017-08-06T09:02:17.217Z,65.50
2017-08-06T09:04:44.793Z,65.80
2017-08-06T09:07:12.317Z,62.70
2017-08-06T09:09:40.605Z,61.60
2017-08-06T09:12:08.149Z,61.60
2017-08-06T09:14:36.435Z,63.10
2017-08-06T09:17:03.966Z,63.00
2017-08-06T09:19:31.527Z,60.70
2017-08-06T09:21:59.050Z,61.00
2017-08-06T09:24:26.577Z,62.20
2017-08-06T09:26:54.114Z,63.50
2017-08-06T09:29:21.640Z,60.40
2017-08-06T09:31:49.158Z,60.70
2017-08-06T09:34:16.703Z,61.00
2017-08-06T09:36:44.228Z,59.30
2017-08-06T09:39:11.745Z,59.10
2017-08-06T09:41:39.298Z,57.20
2017-08-06T09:44:06.822Z,57.20
2017-08-06T09:46:35.122Z,56.90
2017-08-06T09:49:02.678Z,56.80
2017-08-06T09:51:30.213Z,56.70
2017-08-06T09:53:57.743Z,55.00
2017-08-06T09:56:25.467Z,54.90
2017-08-06T09:58:52.999Z,55.70
2017-08-06T10:01:21.299Z,54.80
2017-08-06T10:03:48.843Z,54.60
2017-08-06T10:06:17.129Z,51.50
2017-08-06T10:08:44.657Z,51.40
2017-08-06T10:11:12.201Z,52.30
2017-08-06T10:13:39.719Z,52.40
2017-08-06T10:16:07.241Z,53.00
2017-08-06T10:18:34.795Z,52.40
2017-08-06T10:21:02.329Z,52.10
2017-08-06T10:23:29.868Z,50.70
2017-08-06T10:25:57.426Z,49.80
2017-08-06T10:28:25.212Z,48.70
2017-08-06T10:30:52.742Z,49.20
2017-08-06T10:33:20.290Z,48.20
2017-08-06T10:35:47.808Z,48.80
2017-08-06T10:38:15.330Z,50.20
2017-08-06T10:40:42.874Z,50.30
2017-08-06T10:43:10.406Z,50.70
2017-08-06T10:45:38.701Z,49.90
2017-08-06T10:48:06.249Z,49.80
2017-08-06T10:50:33.776Z,49.90
2017-08-06T10:53:01.301Z,50.70
2017-08-06T10:55:28.837Z,50.70
2017-08-06T10:57:56.369Z,49.80
2017-08-06T11:00:23.900Z,50.80
2017-08-06T11:02:51.533Z,51.10
2017-08-06T11:05:19.092Z,50.30
2017-08-06T11:07:46.609Z,50.40
